createdAt,value
2023-05-05T00:01:28.997Z,11.38
2023-05-05T00:03:55.841Z,16.33
2023-05-05T00:06:23.353Z,13.20
2023-05-05T00:08:50.562Z,12.55
2023-05-05T00:11:19.139Z,20.00
2023-05-05T00:13:45.890Z,16.35
2023-05-05T00:16:12.630Z,10.82
2023-05-05T00:18:39.354Z,11.68
2023-05-05T00:21:06.728Z,11.32
2023-05-05T00:23:35.776Z,14.20
2023-05-05T00:26:02.713Z,12.80
2023-05-05T00:28:30.677Z,15.93
2023-05-05T00:30:57.754Z,12.73
2023-05-05T00:33:24.899Z,15.73
2023-05-05T00:35:51.738Z,13.50
2023-05-05T00:38:18.458Z,13.02
2023-05-05T00:40:45.534Z,16.10
2023-05-05T00:43:13.022Z,18.27
2023-05-05T00:45:42.891Z,18.52
2023-05-05T00:48:10.149Z,12.88
2023-05-05T00:50:38.034Z,12.25
2023-05-05T00:53:06.997Z,13.18
2023-05-05T00:55:36.218Z,14.68
2023-05-05T00:58:11.725Z,18.15
2023-05-05T01:00:38.819Z,12.55
2023-05-05T01:03:06.025Z,13.88
2023-05-05T01:05:47.019Z,15.02
2023-05-05T01:08:25.781Z,17.23
2023-05-05T01:11:03.527Z,12.60
2023-05-05T01:13:50.419Z,15.95
2023-05-05T01:16:30.784Z,12.25
2023-05-05T01:19:19.853Z,13.70
2023-05-05T01:22:00.752Z,16.20
2023-05-05T01:25:00.147Z,19.67
2023-05-05T01:27:47.017Z,11.43
2023-05-05T01:30:51.275Z,21.10
2023-05-05T01:33:25.063Z,14.27
2023-05-05T01:35:56.531Z,16.88
2023-05-05T01:38:26.933Z,13.63
2023-05-05T01:41:18.094Z,11.90
2023-05-05T01:43:47.863Z,15.38
2023-05-05T01:46:16.371Z,13.18
2023-05-05T01:48:44.623Z,13.32
2023-05-05T01:51:13.415Z,12.40
2023-05-05T01:53:41.923Z,13.20
2023-05-05T01:56:10.352Z,13.82
2023-05-05T01:58:38.572Z,13.77
2023-05-05T02:01:06.463Z,14.73
2023-05-05T02:03:36.384Z,15.13
2023-05-05T02:06:05.082Z,12.40
2023-05-05T02:08:33.067Z,14.63
2023-05-05T02:11:09.177Z,15.10
2023-05-05T02:13:37.583Z,11.75
2023-05-05T02:16:06.153Z,11.73
2023-05-05T02:18:35.902Z,14.52
2023-05-05T02:21:03.730Z,12.35
2023-05-05T02:23:30.993Z,11.90
2023-05-05T02:26:04.933Z,14.00
2023-05-05T02:28:48.927Z,11.25
2023-05-05T02:31:17.817Z,11.38
2023-05-05T02:33:47.313Z,14.90
2023-05-05T02:36:21.287Z,10.23
2023-05-05T02:38:53.288Z,14.85
2023-05-05T02:41:22.127Z,12.98
2023-05-05T02:43:51.078Z,15.30
2023-05-05T02:46:18.130Z,17.10
2023-05-05T02:48:46.099Z,14.68
2023-05-05T02:51:13.562Z,10.90
2023-05-05T02:53:40.378Z,13.52
2023-05-05T02:56:41.342Z,14.95
2023-05-05T02:59:36.945Z,18.10
2023-05-05T03:02:17.566Z,18.80
2023-05-05T03:04:52.954Z,19.02
2023-05-05T03:07:34.732Z,16.63
2023-05-05T03:10:08.540Z,16.05
2023-05-05T03:12:46.397Z,16.02
2023-05-05T03:15:14.228Z,12.13
2023-05-05T03:17:44.218Z,12.50
2023-05-05T03:20:13.953Z,13.60
2023-05-05T03:22:40.718Z,15.50
2023-05-05T03:25:08.107Z,17.63
2023-05-05T03:27:36.367Z,17.95
2023-05-05T03:30:03.355Z,17.52
2023-05-05T03:32:30.983Z,15.05
2023-05-05T03:34:57.728Z,15.07
2023-05-05T03:37:24.434Z,18.30
2023-05-05T03:39:51.124Z,12.63
2023-05-05T03:42:18.231Z,16.95
2023-05-05T03:44:46.502Z,15.48
2023-05-05T03:47:13.253Z,14.20
2023-05-05T03:49:40.340Z,16.77
2023-05-05T03:52:07.731Z,17.77
2023-05-05T03:54:34.436Z,18.20
2023-05-05T03:57:01.552Z,17.15
2023-05-05T03:59:28.229Z,15.63
2023-05-05T04:01:55.406Z,15.60
2023-05-05T04:04:22.192Z,13.75
2023-05-05T04:06:49.397Z,14.75
2023-05-05T04:09:16.879Z,14.68
2023-05-05T04:11:44.035Z,14.07
2023-05-05T04:14:10.826Z,15.93
2023-05-05T04:16:38.183Z,14.77
2023-05-05T04:19:05.322Z,15.18
2023-05-05T04:21:32.021Z,16.00
2023-05-05T04:23:58.838Z,18.85
2023-05-05T04:26:25.987Z,13.43
2023-05-05T04:28:53.496Z,16.38
2023-05-05T04:31:22.833Z,13.35
2023-05-05T04:33:50.303Z,14.70
2023-05-05T04:36:20.423Z,11.48
2023-05-05T04:38:47.232Z,11.63
2023-05-05T04:41:14.386Z,19.65
2023-05-05T04:46:21.965Z,15.73
2023-05-05T04:48:50.115Z,14.20
2023-05-05T04:51:17.062Z,16.55
2023-05-05T04:53:43.764Z,19.75
2023-05-05T04:56:12.130Z,17.55
2023-05-05T04:58:38.828Z,11.38
2023-05-05T05:01:05.520Z,12.32
2023-05-05T05:03:33.351Z,15.75
2023-05-05T05:06:02.827Z,16.20
2023-05-05T05:08:29.590Z,22.70
2023-05-05T05:10:56.317Z,14.48
2023-05-05T05:13:23.185Z,20.90
2023-05-05T05:15:51.245Z,14.50
2023-05-05T05:18:17.965Z,17.52
2023-05-05T05:20:45.200Z,20.17
2023-05-05T05:23:11.928Z,13.88
2023-05-05T05:25:38.613Z,19.17
2023-05-05T05:28:09.593Z,15.93
2023-05-05T05:30:37.596Z,21.77
2023-05-05T05:33:04.580Z,19.02
2023-05-05T05:35:31.948Z,17.08
2023-05-05T05:37:59.810Z,21.02
2023-05-05T05:40:27.420Z,15.40
2023-05-05T05:42:54.494Z,17.52
2023-05-05T05:45:22.493Z,15.73
2023-05-05T05:47:52.517Z,15.20
2023-05-05T05:50:22.889Z,12.23
2023-05-05T05:52:49.721Z,18.30
2023-05-05T05:55:17.238Z,22.65
2023-05-05T05:57:44.641Z,18.23
2023-05-05T06:00:12.940Z,16.25
2023-05-05T06:02:39.763Z,20.73
2023-05-05T06:05:13.577Z,17.37
2023-05-05T06:07:40.236Z,13.40
2023-05-05T06:10:22.771Z,16.47
2023-05-05T06:12:53.798Z,20.93
2023-05-05T06:15:20.926Z,12.67
2023-05-05T06:17:52.346Z,15.97
2023-05-05T06:20:20.495Z,16.53
2023-05-05T06:22:47.429Z,12.30
2023-05-05T06:25:16.267Z,11.43
2023-05-05T06:27:44.790Z,13.73
2023-05-05T06:30:12.427Z,13.10
2023-05-05T06:32:40.065Z,16.47
2023-05-05T06:35:07.354Z,11.60
2023-05-05T06:37:40.636Z,13.13
2023-05-05T06:40:11.310Z,24.13
2023-05-05T06:42:38.494Z,11.03
2023-05-05T06:45:06.117Z,14.07
2023-05-05T06:47:34.068Z,17.17
2023-05-05T06:50:01.330Z,16.03
2023-05-05T06:52:29.429Z,16.07
2023-05-05T06:54:56.335Z,13.17
2023-05-05T06:57:23.492Z,11.77
2023-05-05T06:59:50.236Z,12.20
2023-05-05T07:02:17.227Z,20.63
2023-05-05T07:04:44.834Z,12.87
2023-05-05T07:07:11.867Z,10.27
2023-05-05T07:09:38.626Z,11.87
2023-05-05T07:12:05.878Z,13.30
2023-05-05T07:14:32.967Z,10.80
2023-05-05T07:17:02.215Z,10.63
2023-05-05T07:19:29.663Z,13.00
2023-05-05T07:21:56.638Z,12.03
2023-05-05T07:24:26.650Z,9.30
2023-05-05T07:26:53.752Z,9.70
2023-05-05T07:29:20.805Z,9.67
2023-05-05T07:31:47.914Z,10.13
2023-05-05T07:34:19.226Z,11.30
2023-05-05T07:36:46.006Z,8.97
2023-05-05T07:39:15.430Z,10.70
2023-05-05T07:41:43.387Z,9.90
2023-05-05T07:44:17.854Z,9.27
2023-05-05T07:46:46.153Z,9.27
2023-05-05T07:49:13.459Z,9.63
2023-05-05T07:51:40.137Z,11.97
2023-05-05T07:54:08.308Z,8.10
2023-05-05T07:56:36.618Z,9.17
2023-05-05T07:59:03.396Z,10.73
2023-05-05T08:01:30.077Z,8.23
2023-05-05T08:03:56.945Z,8.10
2023-05-05T08:06:25.627Z,8.90
2023-05-05T08:08:53.473Z,9.30
2023-05-05T08:11:20.668Z,7.90
2023-05-05T08:13:48.117Z,10.20
2023-05-05T08:16:15.858Z,7.83
2023-05-05T08:18:42.795Z,7.37
2023-05-05T08:21:10.940Z,8.90
2023-05-05T08:23:38.706Z,8.30
2023-05-05T08:26:09.446Z,13.23
2023-05-05T08:28:36.883Z,5.77
2023-05-05T08:31:04.976Z,6.43
2023-05-05T08:33:31.876Z,9.90
2023-05-05T08:35:58.995Z,8.10
2023-05-05T08:38:28.215Z,6.23
2023-05-05T08:40:55.030Z,9.23
2023-05-05T08:43:24.082Z,6.33
2023-05-05T08:45:51.794Z,10.43
2023-05-05T08:48:21.048Z,5.67
2023-05-05T08:50:52.511Z,6.83
2023-05-05T08:53:49.341Z,4.73
2023-05-05T08:56:16.432Z,6.07
2023-05-05T08:58:44.992Z,6.87
2023-05-05T09:01:13.057Z,5.40
2023-05-05T09:03:40.576Z,6.73
2023-05-05T09:06:07.823Z,4.67
2023-05-05T09:08:34.973Z,5.87
2023-05-05T09:11:04.485Z,5.73
2023-05-05T09:16:18.746Z,4.67
2023-05-05T09:18:45.759Z,5.63
2023-05-05T09:21:24.712Z,4.33
2023-05-05T09:24:09.333Z,5.90
2023-05-05T09:26:44.854Z,3.30
2023-05-05T09:29:21.821Z,5.50
2023-05-05T09:32:08.556Z,3.73
2023-05-05T09:34:36.163Z,3.10
2023-05-05T09:37:03.392Z,6.97
2023-05-05T09:39:30.471Z,13.43
2023-05-05T09:41:57.393Z,4.97
2023-05-05T09:44:35.581Z,4.10
2023-05-05T09:47:22.153Z,3.33
2023-05-05T09:49:59.845Z,8.73
2023-05-05T09:52:28.708Z,5.53
2023-05-05T09:54:58.650Z,4.40
2023-05-05T09:57:35.931Z,9.03
2023-05-05T10:00:04.943Z,4.70
2023-05-05T10:02:37.634Z,6.97
2023-05-05T10:05:20.722Z,5.33
2023-05-05T10:07:50.959Z,4.47
2023-05-05T10:10:18.333Z,5.37
2023-05-05T10:12:48.119Z,4.10
2023-05-05T10:15:17.205Z,3.23
2023-05-05T10:18:02.428Z,4.67
2023-05-05T10:20:35.554Z,5.53
2023-05-05T10:23:05.638Z,3.90
2023-05-05T10:25:43.461Z,6.60
2023-05-05T10:28:12.333Z,4.30
2023-05-05T10:30:46.350Z,4.23
2023-05-05T10:33:30.207Z,5.43
2023-05-05T10:36:01.721Z,7.13
2023-05-05T10:38:31.305Z,3.90
2023-05-05T10:41:00.003Z,4.47
2023-05-05T10:43:28.885Z,9.13
2023-05-05T10:45:56.140Z,5.97
2023-05-05T10:48:40.064Z,4.50
2023-05-05T10:51:39.302Z,7.10
2023-05-05T10:54:25.295Z,4.23
2023-05-05T10:56:53.186Z,4.53
2023-05-05T10:59:38.350Z,4.23
2023-05-05T11:02:27.892Z,4.07
2023-05-05T11:05:22.820Z,7.10
2023-05-05T11:07:52.047Z,4.50
2023-05-05T11:10:23.749Z,8.07
2023-05-05T11:13:02.784Z,4.87
2023-05-05T11:15:30.110Z,7.00
2023-05-05T11:17:58.863Z,4.13
2023-05-05T11:20:58.024Z,3.90
2023-05-05T11:23:31.084Z,4.97
2023-05-05T11:25:58.544Z,7.73
2023-05-05T11:28:29.884Z,4.10
2023-05-05T11:30:59.982Z,3.20
2023-05-05T11:33:32.505Z,6.23
2023-05-05T11:36:04.087Z,3.33
2023-05-05T11:38:50.085Z,3.87
2023-05-05T11:41:35.801Z,4.00
2023-05-05T11:44:16.802Z,6.13
2023-05-05T11:46:52.647Z,9.67
2023-05-05T11:49:36.617Z,6.93
2023-05-05T11:52:08.655Z,4.03
2023-05-05T11:54:36.901Z,4.43
2023-05-05T11:57:10.219Z,3.63
2023-05-05T11:59:49.858Z,4.53
2023-05-05T12:02:18.106Z,3.70
2023-05-05T12:04:45.309Z,5.33
2023-05-05T12:07:22.653Z,3.80
2023-05-05T12:09:50.539Z,3.33
2023-05-05T12:12:20.575Z,4.33
2023-05-05T12:14:54.233Z,5.57
2023-05-05T12:17:22.761Z,7.07
2023-05-05T12:19:54.609Z,5.43
2023-05-05T12:22:26.667Z,9.07
2023-05-05T12:25:05.483Z,2.80
2023-05-05T12:27:32.820Z,2.20
2023-05-05T12:30:16.082Z,3.07
2023-05-05T12:32:43.345Z,3.30
2023-05-05T12:35:12.674Z,3.20
2023-05-05T12:37:39.877Z,7.20
2023-05-05T12:40:28.783Z,4.03
2023-05-05T12:42:56.219Z,4.30
2023-05-05T12:45:23.021Z,3.00
2023-05-05T12:47:50.487Z,4.67
2023-05-05T12:50:31.860Z,3.73
2023-05-05T12:52:58.966Z,3.13
2023-05-05T12:55:40.507Z,2.70
2023-05-05T12:58:10.040Z,6.93
2023-05-05T13:00:38.273Z,5.30
2023-05-05T13:03:06.243Z,4.30
2023-05-05T13:05:36.553Z,4.20
2023-05-05T13:08:03.410Z,3.70
2023-05-05T13:10:31.749Z,2.90
2023-05-05T13:12:58.706Z,3.47
2023-05-05T13:15:26.471Z,7.23
2023-05-05T13:18:02.972Z,2.40
2023-05-05T13:20:30.752Z,2.80
2023-05-05T13:22:57.917Z,3.07
2023-05-05T13:25:27.842Z,11.30
2023-05-05T13:27:55.992Z,4.30
2023-05-05T13:30:22.830Z,3.03
2023-05-05T13:32:50.042Z,2.77
2023-05-05T13:35:17.467Z,3.80
2023-05-05T13:37:46.559Z,3.10
2023-05-05T13:40:14.011Z,3.53
2023-05-05T13:42:41.021Z,3.00
2023-05-05T13:45:15.499Z,4.30
2023-05-05T13:47:44.810Z,4.87
2023-05-05T13:50:13.265Z,2.73
2023-05-05T13:52:40.992Z,5.07
2023-05-05T13:55:12.414Z,3.03
2023-05-05T13:57:39.690Z,4.80
2023-05-05T14:00:07.158Z,3.50
2023-05-05T14:02:35.100Z,3.70
2023-05-05T14:05:01.801Z,9.20
2023-05-05T14:07:40.597Z,3.27
2023-05-05T14:10:09.263Z,4.00
2023-05-05T14:12:39.581Z,2.90
2023-05-05T14:15:08.860Z,3.03
2023-05-05T14:17:38.681Z,3.37
2023-05-05T14:20:06.369Z,4.10
2023-05-05T14:22:36.299Z,4.37
2023-05-05T14:25:04.141Z,2.50
2023-05-05T14:27:32.639Z,9.40
2023-05-05T14:29:59.331Z,2.67
2023-05-05T14:32:26.637Z,3.00
2023-05-05T14:34:55.338Z,3.87
2023-05-05T14:37:22.870Z,7.33
2023-05-05T14:39:49.588Z,5.20
2023-05-05T14:42:16.382Z,2.60
2023-05-05T14:44:43.093Z,2.47
2023-05-05T14:47:09.875Z,2.57
2023-05-05T14:49:36.583Z,7.40
2023-05-05T14:52:05.135Z,3.20
2023-05-05T14:54:32.984Z,2.70
2023-05-05T14:56:59.891Z,3.03
2023-05-05T14:59:28.079Z,3.23
2023-05-05T15:01:54.957Z,6.63
2023-05-05T15:04:21.789Z,3.20
2023-05-05T15:06:48.881Z,3.87
2023-05-05T15:09:18.038Z,3.10
2023-05-05T15:11:45.890Z,4.87
2023-05-05T15:14:14.022Z,5.00
2023-05-05T15:16:41.304Z,3.00
2023-05-05T15:19:08.081Z,2.97
2023-05-05T15:21:35.181Z,4.40
2023-05-05T15:24:02.288Z,3.13
2023-05-05T15:26:28.997Z,13.63
2023-05-05T15:28:56.194Z,2.73
2023-05-05T15:31:22.899Z,3.03
2023-05-05T15:33:51.530Z,3.00
2023-05-05T15:36:22.564Z,2.83
2023-05-05T15:38:49.848Z,3.57
2023-05-05T15:41:16.569Z,2.67
2023-05-05T15:43:47.955Z,5.30
2023-05-05T15:46:17.267Z,2.60
2023-05-05T15:48:44.337Z,2.07
2023-05-05T15:51:12.430Z,5.67
2023-05-05T15:53:39.480Z,6.80
2023-05-05T15:56:06.334Z,2.50
2023-05-05T15:58:33.689Z,3.00
2023-05-05T16:01:00.573Z,2.73
2023-05-05T16:03:27.518Z,3.90
2023-05-05T16:05:54.779Z,4.43
2023-05-05T16:08:21.515Z,3.23
2023-05-05T16:10:48.233Z,2.53
2023-05-05T16:13:15.034Z,3.00
2023-05-05T16:15:42.167Z,6.23
2023-05-05T16:18:08.970Z,2.93
2023-05-05T16:20:36.208Z,4.47
2023-05-05T16:23:03.051Z,2.30
2023-05-05T16:25:30.269Z,4.30
2023-05-05T16:27:57.826Z,2.80
2023-05-05T16:30:25.068Z,5.77
2023-05-05T16:32:52.314Z,4.13
2023-05-05T16:35:19.515Z,2.40
2023-05-05T16:37:46.348Z,5.17
2023-05-05T16:40:13.270Z,5.60
2023-05-05T16:42:40.370Z,3.03
2023-05-05T16:45:08.549Z,2.80
2023-05-05T16:47:36.174Z,5.20
2023-05-05T16:50:03.306Z,5.63
2023-05-05T16:52:30.052Z,3.17
2023-05-05T16:54:57.419Z,3.30
2023-05-05T16:57:24.851Z,3.93
2023-05-05T16:59:54.471Z,5.63
2023-05-05T17:02:21.666Z,3.83
2023-05-05T17:04:48.546Z,2.90
2023-05-05T17:07:15.505Z,2.90
2023-05-05T17:09:42.176Z,3.10
2023-05-05T17:12:09.260Z,4.70
2023-05-05T17:14:37.353Z,4.10
2023-05-05T17:17:04.284Z,5.20
2023-05-05T17:19:31.848Z,3.93
2023-05-05T17:21:58.656Z,4.80
2023-05-05T17:24:25.751Z,9.50
2023-05-05T17:26:55.230Z,4.37
2023-05-05T17:29:23.533Z,4.90
2023-05-05T17:31:50.952Z,3.63
2023-05-05T17:34:18.194Z,7.53
2023-05-05T17:36:44.900Z,4.40
2023-05-05T17:39:11.836Z,4.50
2023-05-05T17:41:38.924Z,8.10
2023-05-05T17:44:05.928Z,2.63
2023-05-05T17:46:33.356Z,3.27
2023-05-05T17:49:00.910Z,6.83
2023-05-05T17:51:29.585Z,3.80
2023-05-05T17:53:56.512Z,4.20
2023-05-05T17:56:23.280Z,2.90
2023-05-05T17:58:50.057Z,5.57
2023-05-05T18:01:27.832Z,4.00
2023-05-05T18:03:56.530Z,3.07
2023-05-05T18:06:23.290Z,5.73
2023-05-05T18:08:50.275Z,4.37
2023-05-05T18:11:17.098Z,4.87
2023-05-05T18:13:45.264Z,5.10
2023-05-05T18:16:12.342Z,4.20
2023-05-05T18:18:41.540Z,3.57
2023-05-05T18:21:12.594Z,4.13
2023-05-05T18:23:40.236Z,7.37
2023-05-05T18:26:07.854Z,5.33
2023-05-05T18:28:37.047Z,4.73
2023-05-05T18:31:04.269Z,7.77
2023-05-05T18:33:31.876Z,4.73
2023-05-05T18:35:59.246Z,6.80
2023-05-05T18:38:25.980Z,6.13
2023-05-05T18:40:52.740Z,5.17
2023-05-05T18:43:19.500Z,7.60
2023-05-05T18:45:47.518Z,5.33
2023-05-05T18:48:14.200Z,8.33
2023-05-05T18:50:41.226Z,6.20
2023-05-05T18:53:12.588Z,8.50
2023-05-05T18:55:39.449Z,7.93
2023-05-05T18:58:06.867Z,11.43
2023-05-05T19:00:33.578Z,7.37
2023-05-05T19:03:00.357Z,7.87
2023-05-05T19:05:27.639Z,6.40
2023-05-05T19:07:55.738Z,4.17
2023-05-05T19:10:27.143Z,8.10
2023-05-05T19:12:55.489Z,7.03
2023-05-05T19:15:22.511Z,6.80
2023-05-05T19:17:49.310Z,7.93
2023-05-05T19:20:16.435Z,8.93
2023-05-05T19:22:43.482Z,11.13
2023-05-05T19:25:10.622Z,7.97
2023-05-05T19:27:39.665Z,5.33
2023-05-05T19:30:07.501Z,7.30
2023-05-05T19:32:34.616Z,7.73
2023-05-05T19:35:01.997Z,4.97
2023-05-05T19:37:28.800Z,5.40
2023-05-05T19:39:57.513Z,7.10
2023-05-05T19:42:24.197Z,19.00
2023-05-05T19:44:52.240Z,7.70
2023-05-05T19:47:19.007Z,6.03
2023-05-05T19:49:49.380Z,10.10
2023-05-05T19:52:18.977Z,4.57
2023-05-05T19:54:45.783Z,5.90
2023-05-05T19:57:12.904Z,5.53
2023-05-05T19:59:39.870Z,10.83
2023-05-05T20:02:06.845Z,10.13
2023-05-05T20:04:33.583Z,7.70
2023-05-05T20:07:00.547Z,5.03
2023-05-05T20:09:27.642Z,6.40
2023-05-05T20:11:55.844Z,7.40
2023-05-05T20:14:23.168Z,5.63
2023-05-05T20:16:50.197Z,6.53
2023-05-05T20:19:19.248Z,7.33
2023-05-05T20:21:46.244Z,7.80
2023-05-05T20:24:12.977Z,10.07
2023-05-05T20:26:39.841Z,5.10
2023-05-05T20:29:06.967Z,18.43
2023-05-05T20:31:35.329Z,5.50
2023-05-05T20:34:02.060Z,11.40
2023-05-05T20:36:28.765Z,5.50
2023-05-05T20:38:55.607Z,5.40
2023-05-05T20:41:22.354Z,7.63
2023-05-05T20:43:49.144Z,5.60
2023-05-05T20:46:16.482Z,8.13
2023-05-05T20:48:44.053Z,8.20
2023-05-05T20:51:11.242Z,6.63
2023-05-05T20:53:37.943Z,8.03
2023-05-05T20:56:08.614Z,7.10
2023-05-05T20:58:38.726Z,6.72
2023-05-05T21:01:07.689Z,5.88
2023-05-05T21:03:36.046Z,8.15
2023-05-05T21:06:02.964Z,8.43
2023-05-05T21:08:30.308Z,8.63
2023-05-05T21:10:57.522Z,10.15
2023-05-05T21:13:24.453Z,9.52
2023-05-05T21:15:51.268Z,23.40
2023-05-05T21:18:18.008Z,7.85
2023-05-05T21:20:45.109Z,9.57
2023-05-05T21:23:11.987Z,7.35
2023-05-05T21:25:38.698Z,7.25
2023-05-05T21:28:06.019Z,7.47
2023-05-05T21:30:33.706Z,10.30
2023-05-05T21:33:00.549Z,8.45
2023-05-05T21:35:27.295Z,6.90
2023-05-05T21:37:53.989Z,8.43
2023-05-05T21:40:21.055Z,10.73
2023-05-05T21:42:48.117Z,6.90
2023-05-05T21:45:15.376Z,11.88
2023-05-05T21:47:42.281Z,17.90
2023-05-05T21:50:11.750Z,10.70
2023-05-05T21:52:39.944Z,6.65
2023-05-05T21:55:07.069Z,7.97
2023-05-05T21:57:33.801Z,10.55
2023-05-05T22:00:00.512Z,8.43
2023-05-05T22:02:27.279Z,7.78
2023-05-05T22:04:54.455Z,10.52
2023-05-05T22:07:21.241Z,8.05
2023-05-05T22:09:48.150Z,8.52
2023-05-05T22:12:15.047Z,6.20
2023-05-05T22:14:45.573Z,8.65
2023-05-05T22:17:12.775Z,9.07
2023-05-05T22:19:39.503Z,6.15
2023-05-05T22:22:06.881Z,9.27
2023-05-05T22:24:37.096Z,7.15
2023-05-05T22:27:03.985Z,7.72
2023-05-05T22:29:30.986Z,6.05
2023-05-05T22:31:59.505Z,7.05
2023-05-05T22:34:26.232Z,6.95
2023-05-05T22:36:54.312Z,6.57
2023-05-05T22:39:21.190Z,9.25
2023-05-05T22:41:48.253Z,6.50
2023-05-05T22:44:15.559Z,9.20
2023-05-05T22:46:42.331Z,7.30
2023-05-05T22:49:10.174Z,6.40
2023-05-05T22:51:36.929Z,7.32
2023-05-05T22:54:04.102Z,7.30
2023-05-05T22:56:32.017Z,5.78
2023-05-05T22:58:59.989Z,7.38
2023-05-05T23:01:26.703Z,5.03
2023-05-05T23:03:54.358Z,9.23
2023-05-05T23:06:21.110Z,8.40
2023-05-05T23:08:50.365Z,6.28
2023-05-05T23:11:17.451Z,5.70
2023-05-05T23:13:44.191Z,5.50
2023-05-05T23:16:14.778Z,6.75
2023-05-05T23:18:41.812Z,7.95
2023-05-05T23:21:08.973Z,6.00
2023-05-05T23:23:35.886Z,4.97
2023-05-05T23:26:02.606Z,8.52
2023-05-05T23:28:29.301Z,7.47
2023-05-05T23:30:56.157Z,7.93
2023-05-05T23:33:23.284Z,4.50
2023-05-05T23:35:50.005Z,8.15
2023-05-05T23:38:16.783Z,8.13
2023-05-05T23:40:43.560Z,8.15
2023-05-05T23:43:12.247Z,7.60
2023-05-05T23:45:38.960Z,6.57
2023-05-05T23:48:06.269Z,13.00
2023-05-05T23:50:33.686Z,7.65
2023-05-05T23:53:00.397Z,8.30
2023-05-05T23:55:27.446Z,6.32
2023-05-05T23:57:54.138Z,6.20
